Time;durP1;ratioP1;P1;durP2;ratioP2;P2;SDS_P1;SDS_P2;PMS_P1;PMS_P2;Temp;Humidity;BMP_temperature;BMP_pressure;BME280_temperature;BME280_humidity;BME280_pressure;Samples;Min_cycle;Max_cycle;Signal;HPM_P1;HPM_P2
2022/01/21 00:01:37;;;;;;;16.73;5.20;;;6.00;95.80;;;;;;5057166;28;20972;-79
2022/01/21 00:04:04;;;;;;;15.48;5.10;;;6.00;95.70;;;;;;5053450;28;20103;-79
2022/01/21 00:06:31;;;;;;;19.25;5.50;;;5.90;95.70;;;;;;5052226;28;20072;-79
2022/01/21 00:08:57;;;;;;;17.27;5.38;;;6.00;95.70;;;;;;5057079;28;20072;-79
2022/01/21 00:11:25;;;;;;;17.00;5.15;;;5.90;95.60;;;;;;5046132;28;20026;-79
2022/01/21 00:13:51;;;;;;;11.70;4.50;;;5.90;95.50;;;;;;5045072;28;20041;-79
2022/01/21 00:16:22;;;;;;;13.45;4.78;;;5.80;95.60;;;;;;5055481;28;20020;-79
2022/01/21 00:18:59;;;;;;;16.52;4.53;;;5.70;95.90;;;;;;5053231;28;20087;-78
2022/01/21 00:32:25;;;;;;;20.25;6.88;;;5.10;96.60;;;;;;5034022;28;20125;-79
2022/01/21 00:34:51;;;;;;;14.10;6.30;;;5.10;96.90;;;;;;5049423;28;20108;-79
2022/01/21 00:37:17;;;;;;;17.88;7.40;;;5.00;97.20;;;;;;5044792;28;20033;-78
2022/01/21 00:39:45;;;;;;;14.68;5.45;;;4.90;97.40;;;;;;5045479;28;20032;-78
2022/01/21 00:45:00;;;;;;;12.15;4.82;;;4.80;97.50;;;;;;5048216;28;20067;-78
2022/01/21 00:47:27;;;;;;;15.05;4.57;;;4.80;97.50;;;;;;5047186;28;20638;-79
2022/01/21 00:49:53;;;;;;;12.32;5.60;;;4.70;97.60;;;;;;5043066;28;20037;-79
2022/01/21 00:52:19;;;;;;;12.85;5.13;;;4.70;97.70;;;;;;5047556;28;20053;-78
2022/01/21 00:54:44;;;;;;;12.75;4.60;;;4.60;97.80;;;;;;5047639;28;20036;-79
2022/01/21 00:57:10;;;;;;;10.52;4.20;;;4.50;98.00;;;;;;5038719;28;20025;-79
2022/01/21 00:59:36;;;;;;;13.82;4.45;;;4.50;98.10;;;;;;5041724;28;20040;-78
2022/01/21 01:02:03;;;;;;;16.15;5.00;;;4.50;98.00;;;;;;5037526;28;20041;-78
2022/01/21 01:04:29;;;;;;;11.80;4.35;;;4.50;98.10;;;;;;5043628;28;20025;-78
2022/01/21 01:06:55;;;;;;;11.23;4.38;;;4.50;98.30;;;;;;5041766;28;20083;-78
2022/01/21 01:09:21;;;;;;;12.63;4.30;;;4.40;98.40;;;;;;5048819;28;20033;-78
2022/01/21 01:22:48;;;;;;;10.98;4.45;;;4.20;98.80;;;;;;5028483;28;20071;-78
2022/01/21 01:27:59;;;;;;;14.48;4.65;;;4.10;99.00;;;;;;5043697;28;20044;-78
2022/01/21 01:30:29;;;;;;;11.57;4.88;;;4.10;99.00;;;;;;5036496;28;20033;-79
2022/01/21 01:32:58;;;;;;;10.77;4.20;;;4.00;99.40;;;;;;5045745;28;20043;-78
2022/01/21 01:35:25;;;;;;;12.88;5.00;;;4.00;99.10;;;;;;5048180;28;20029;-78
2022/01/21 01:40:37;;;;;;;17.33;5.28;;;3.90;99.30;;;;;;5046210;28;20028;-79
2022/01/21 01:51:18;;;;;;;13.35;5.10;;;3.80;99.60;;;;;;5041020;28;20166;-76
2022/01/21 01:53:56;;;;;;;13.93;5.10;;;3.80;99.70;;;;;;5045017;28;20044;-78
2022/01/21 01:56:30;;;;;;;12.77;4.78;;;3.80;99.80;;;;;;5034853;28;20032;-79
2022/01/21 01:58:56;;;;;;;10.63;4.72;;;3.80;99.90;;;;;;5044824;28;20029;-78
2022/01/21 02:01:22;;;;;;;13.05;4.75;;;3.80;99.90;;;;;;5046347;28;20075;-78
2022/01/21 02:03:47;;;;;;;11.77;4.50;;;3.70;99.90;;;;;;5045389;28;20392;-78
2022/01/21 02:06:13;;;;;;;11.55;4.65;;;3.70;99.90;;;;;;5045697;28;20112;-77
2022/01/21 02:08:40;;;;;;;12.52;4.78;;;3.70;99.90;;;;;;5031544;28;20033;-79
2022/01/21 02:11:06;;;;;;;15.32;4.97;;;3.70;99.90;;;;;;5042664;28;20039;-78
2022/01/21 02:13:39;;;;;;;11.80;4.18;;;3.70;99.90;;;;;;5040887;28;20136;-79
2022/01/21 02:16:42;;;;;;;12.90;4.55;;;3.60;99.90;;;;;;5046475;28;20404;-78
2022/01/21 02:21:49;;;;;;;14.02;5.15;;;3.60;99.90;;;;;;5043747;28;20028;-79
2022/01/21 02:24:21;;;;;;;10.30;4.28;;;3.60;99.90;;;;;;5037109;28;20017;-78
2022/01/21 02:26:48;;;;;;;12.38;5.18;;;3.60;99.90;;;;;;5031335;28;20040;-79
2022/01/21 02:29:26;;;;;;;12.05;4.22;;;3.60;99.90;;;;;;5045811;28;20102;-78
2022/01/21 02:31:52;;;;;;;10.45;3.85;;;3.60;99.90;;;;;;5042966;28;20146;-78
2022/01/21 02:34:18;;;;;;;14.15;4.28;;;3.60;99.90;;;;;;5040509;28;20030;-78
2022/01/21 02:36:44;;;;;;;10.55;4.15;;;3.50;99.90;;;;;;5042455;28;20024;-78
2022/01/21 02:39:09;;;;;;;11.00;4.50;;;3.50;99.90;;;;;;5038736;28;20031;-78
2022/01/21 02:41:35;;;;;;;12.52;4.32;;;3.50;99.90;;;;;;5039935;28;20029;-78
2022/01/21 02:44:01;;;;;;;9.70;4.40;;;3.50;99.90;;;;;;5049375;28;20043;-77
2022/01/21 02:46:27;;;;;;;11.27;4.05;;;3.50;99.90;;;;;;5037813;28;20030;-78
2022/01/21 02:48:54;;;;;;;14.73;4.78;;;3.50;99.90;;;;;;5038536;28;20034;-78
2022/01/21 02:51:20;;;;;;;16.80;4.28;;;3.50;99.90;;;;;;5035693;28;20049;-77
2022/01/21 02:56:17;;;;;;;11.00;4.03;;;3.50;99.90;;;;;;5044606;28;20021;-78
2022/01/21 02:58:44;;;;;;;12.48;4.20;;;3.50;99.90;;;;;;5039399;28;20086;-78
2022/01/21 03:01:10;;;;;;;11.68;4.05;;;3.50;99.90;;;;;;5041077;28;20029;-79
2022/01/21 03:03:36;;;;;;;12.63;4.05;;;3.40;99.90;;;;;;5044404;28;20039;-78
2022/01/21 03:06:02;;;;;;;13.68;4.20;;;3.40;99.90;;;;;;5031919;28;20079;-78
2022/01/21 03:08:29;;;;;;;8.32;3.97;;;3.40;99.90;;;;;;5044105;28;20028;-77
2022/01/21 03:10:55;;;;;;;12.45;3.97;;;3.40;99.90;;;;;;5032417;28;20035;-77
2022/01/21 03:13:22;;;;;;;9.15;3.75;;;3.30;99.90;;;;;;5038962;28;20058;-79
2022/01/21 03:15:49;;;;;;;14.98;4.82;;;3.30;99.90;;;;;;5041319;28;20483;-78
2022/01/21 03:18:15;;;;;;;10.27;4.43;;;3.30;99.90;;;;;;5045885;28;20454;-78
2022/01/21 03:20:42;;;;;;;12.32;4.47;;;3.30;99.90;;;;;;5040451;28;20400;-78
2022/01/21 03:23:08;;;;;;;10.80;3.97;;;3.30;99.90;;;;;;5047076;28;20049;-78
2022/01/21 03:25:35;;;;;;;12.30;4.32;;;3.20;99.90;;;;;;5042956;28;20021;-78
2022/01/21 03:28:00;;;;;;;11.63;4.18;;;3.20;99.90;;;;;;5040509;28;20060;-78
2022/01/21 03:30:26;;;;;;;10.27;4.10;;;3.20;99.90;;;;;;5036548;28;20025;-78
2022/01/21 03:32:52;;;;;;;9.80;4.07;;;3.20;99.90;;;;;;5046726;28;20099;-78
2022/01/21 03:35:18;;;;;;;11.18;4.32;;;3.10;99.90;;;;;;5045481;28;20434;-79
2022/01/21 03:37:43;;;;;;;9.35;3.95;;;3.10;99.90;;;;;;5043463;28;20040;-78
2022/01/21 03:40:10;;;;;;;8.63;4.30;;;3.10;99.90;;;;;;5039119;28;20075;-78
2022/01/21 03:42:36;;;;;;;10.23;4.18;;;3.10;99.90;;;;;;5041053;28;20037;-77
2022/01/21 03:45:02;;;;;;;11.23;3.90;;;3.10;99.90;;;;;;5045461;28;20527;-78
2022/01/21 03:47:28;;;;;;;11.57;3.88;;;3.00;99.90;;;;;;5031942;28;20030;-78
2022/01/21 03:49:58;;;;;;;11.65;4.00;;;3.00;99.90;;;;;;5046518;28;20039;-78
2022/01/21 03:52:24;;;;;;;8.20;3.80;;;3.00;99.90;;;;;;5044487;28;20114;-78
2022/01/21 03:54:50;;;;;;;10.15;4.22;;;2.90;99.90;;;;;;5043586;28;20484;-77
2022/01/21 03:57:15;;;;;;;9.30;4.28;;;2.90;99.90;;;;;;5044900;28;20030;-77
2022/01/21 03:59:41;;;;;;;9.85;4.30;;;2.90;99.90;;;;;;5045857;28;20021;-77
2022/01/21 04:02:07;;;;;;;10.73;4.05;;;2.90;99.90;;;;;;5045352;28;20495;-77
2022/01/21 04:04:34;;;;;;;12.05;4.20;;;2.80;99.90;;;;;;5040010;28;20541;-78
2022/01/21 04:07:00;;;;;;;15.48;4.60;;;2.80;99.90;;;;;;5038608;28;20022;-78
2022/01/21 04:09:25;;;;;;;15.57;4.90;;;2.80;99.90;;;;;;5032938;28;20223;-79
2022/01/21 04:11:51;;;;;;;10.15;4.00;;;2.80;99.90;;;;;;5046762;28;20029;-78
2022/01/21 04:14:17;;;;;;;10.40;4.93;;;2.80;99.90;;;;;;5046744;28;20037;-77
2022/01/21 04:16:43;;;;;;;9.85;4.20;;;2.80;99.90;;;;;;5038185;28;20115;-77
2022/01/21 04:19:09;;;;;;;11.52;4.30;;;2.80;99.90;;;;;;5042379;28;20025;-78
2022/01/21 04:21:35;;;;;;;10.18;4.32;;;2.70;99.90;;;;;;5048501;28;20396;-78
2022/01/21 04:24:02;;;;;;;8.18;4.20;;;2.80;99.90;;;;;;5047394;28;20018;-78
2022/01/21 04:26:29;;;;;;;11.40;4.32;;;2.70;99.90;;;;;;5050892;28;20447;-78
2022/01/21 04:28:54;;;;;;;14.82;4.15;;;2.70;99.90;;;;;;5044987;28;20025;-77
2022/01/21 04:31:20;;;;;;;9.98;3.83;;;2.70;99.90;;;;;;5043602;28;20084;-78
2022/01/21 04:33:46;;;;;;;12.40;4.70;;;2.70;99.90;;;;;;5044970;28;20389;-78
2022/01/21 04:36:12;;;;;;;12.15;4.35;;;2.60;99.90;;;;;;5048039;28;20036;-78
2022/01/21 04:38:38;;;;;;;11.23;4.65;;;2.60;99.90;;;;;;5032009;28;20543;-77
2022/01/21 04:41:41;;;;;;;10.98;5.00;;;2.60;99.90;;;;;;5045170;28;20107;-78
2022/01/21 04:49:21;;;;;;;11.95;4.43;;;2.50;99.90;;;;;;5036876;28;20068;-77
2022/01/21 04:52:02;;;;;;;13.02;4.30;;;2.50;99.90;;;;;;5040458;28;20073;-78
2022/01/21 04:54:32;;;;;;;8.55;4.35;;;2.40;99.90;;;;;;5047969;28;20052;-77
2022/01/21 04:56:59;;;;;;;12.18;4.97;;;2.40;99.90;;;;;;5048546;28;20053;-78
2022/01/21 04:59:25;;;;;;;17.90;4.82;;;2.40;99.90;;;;;;5049714;28;20039;-78
2022/01/21 05:01:51;;;;;;;9.25;4.60;;;2.40;99.90;;;;;;5051444;28;20056;-78
2022/01/21 05:04:19;;;;;;;9.73;4.35;;;2.40;99.90;;;;;;5046591;28;20041;-78
2022/01/21 05:06:45;;;;;;;12.25;4.57;;;2.30;99.90;;;;;;5041734;28;20123;-76
2022/01/21 05:09:10;;;;;;;12.90;4.30;;;2.30;99.90;;;;;;5042227;28;20037;-77
2022/01/21 05:11:38;;;;;;;10.27;4.13;;;2.30;99.90;;;;;;5049650;28;20071;-78
2022/01/21 05:14:21;;;;;;;10.30;3.97;;;2.30;99.90;;;;;;5049243;28;20053;-79
2022/01/21 05:16:49;;;;;;;8.85;3.88;;;2.30;99.90;;;;;;5035840;28;20397;-77
2022/01/21 05:19:17;;;;;;;9.65;3.65;;;2.30;99.90;;;;;;5042900;28;20021;-79
2022/01/21 05:21:44;;;;;;;8.98;3.90;;;2.30;99.90;;;;;;5052364;28;20033;-79
2022/01/21 05:24:11;;;;;;;9.80;3.97;;;2.30;99.90;;;;;;5047957;28;20033;-80
